sensor_id;sensor_type;location;lat;lon;timestamp;temperature;humidity
32536;DHT22;18974;50.838;4.636;2023-07-29T00:01:50;20.90;99.90
32536;DHT22;18974;50.838;4.636;2023-07-29T00:04:19;20.90;99.90
32536;DHT22;18974;50.838;4.636;2023-07-29T00:06:45;20.80;99.90
32536;DHT22;18974;50.838;4.636;2023-07-29T00:09:11;20.70;99.90
32536;DHT22;18974;50.838;4.636;2023-07-29T00:11:37;20.70;99.90
32536;DHT22;18974;50.838;4.636;2023-07-29T00:14:03;20.60;99.90
32536;DHT22;18974;50.838;4.636;2023-07-29T00:16:29;20.60;99.90
32536;DHT22;18974;50.838;4.636;2023-07-29T00:18:54;20.50;99.90
32536;DHT22;18974;50.838;4.636;2023-07-29T00:21:20;20.50;99.90
32536;DHT22;18974;50.838;4.636;2023-07-29T00:23:46;20.50;99.90
32536;DHT22;18974;50.838;4.636;2023-07-29T00:26:11;20.40;99.90
32536;DHT22;18974;50.838;4.636;2023-07-29T00:28:37;20.40;99.90
32536;DHT22;18974;50.838;4.636;2023-07-29T00:31:02;20.30;99.90
32536;DHT22;18974;50.838;4.636;2023-07-29T00:33:28;20.30;99.90
32536;DHT22;18974;50.838;4.636;2023-07-29T00:35:54;20.20;99.90
32536;DHT22;18974;50.838;4.636;2023-07-29T00:38:20;20.20;99.90
32536;DHT22;18974;50.838;4.636;2023-07-29T00:40:45;20.10;99.90
32536;DHT22;18974;50.838;4.636;2023-07-29T00:43:11;20.00;99.90
32536;DHT22;18974;50.838;4.636;2023-07-29T00:45:37;19.90;99.90
32536;DHT22;18974;50.838;4.636;2023-07-29T00:48:04;19.80;99.90
32536;DHT22;18974;50.838;4.636;2023-07-29T00:50:31;19.80;99.90
32536;DHT22;18974;50.838;4.636;2023-07-29T00:52:57;19.70;99.90
32536;DHT22;18974;50.838;4.636;2023-07-29T00:55:24;19.70;99.90
32536;DHT22;18974;50.838;4.636;2023-07-29T00:57:50;19.70;99.90
32536;DHT22;18974;50.838;4.636;2023-07-29T01:00:18;19.70;99.90
32536;DHT22;18974;50.838;4.636;2023-07-29T01:02:44;19.60;99.90
32536;DHT22;18974;50.838;4.636;2023-07-29T01:05:12;19.50;99.90
32536;DHT22;18974;50.838;4.636;2023-07-29T01:07:59;19.50;99.90
32536;DHT22;18974;50.838;4.636;2023-07-29T01:13:23;19.50;99.90
32536;DHT22;18974;50.838;4.636;2023-07-29T01:18:30;19.40;99.90
32536;DHT22;18974;50.838;4.636;2023-07-29T01:20:59;19.40;99.90
32536;DHT22;18974;50.838;4.636;2023-07-29T01:23:30;19.20;99.90
32536;DHT22;18974;50.838;4.636;2023-07-29T01:25:56;19.20;99.90
32536;DHT22;18974;50.838;4.636;2023-07-29T01:28:23;19.30;99.90
32536;DHT22;18974;50.838;4.636;2023-07-29T01:30:52;19.30;99.90
32536;DHT22;18974;50.838;4.636;2023-07-29T01:33:34;19.30;99.90
32536;DHT22;18974;50.838;4.636;2023-07-29T01:36:21;19.30;99.90
32536;DHT22;18974;50.838;4.636;2023-07-29T01:38:49;19.30;99.90
32536;DHT22;18974;50.838;4.636;2023-07-29T01:41:17;19.30;99.90
32536;DHT22;18974;50.838;4.636;2023-07-29T01:43:43;19.40;99.90
32536;DHT22;18974;50.838;4.636;2023-07-29T01:46:10;19.30;99.90
32536;DHT22;18974;50.838;4.636;2023-07-29T01:48:39;19.20;99.90
32536;DHT22;18974;50.838;4.636;2023-07-29T01:51:06;19.20;99.90
32536;DHT22;18974;50.838;4.636;2023-07-29T01:53:32;19.20;99.90
32536;DHT22;18974;50.838;4.636;2023-07-29T01:55:57;19.20;99.90
32536;DHT22;18974;50.838;4.636;2023-07-29T01:58:24;19.20;99.90
32536;DHT22;18974;50.838;4.636;2023-07-29T02:00:49;19.10;99.90
32536;DHT22;18974;50.838;4.636;2023-07-29T02:03:15;19.00;99.90
32536;DHT22;18974;50.838;4.636;2023-07-29T02:05:41;19.00;99.90
32536;DHT22;18974;50.838;4.636;2023-07-29T02:08:10;19.00;99.90
32536;DHT22;18974;50.838;4.636;2023-07-29T02:10:36;19.00;99.90
32536;DHT22;18974;50.838;4.636;2023-07-29T02:13:03;19.00;99.90
32536;DHT22;18974;50.838;4.636;2023-07-29T02:15:29;19.00;99.90
32536;DHT22;18974;50.838;4.636;2023-07-29T02:17:55;19.00;99.90
32536;DHT22;18974;50.838;4.636;2023-07-29T02:20:20;19.00;99.90
32536;DHT22;18974;50.838;4.636;2023-07-29T02:22:46;19.00;99.90
32536;DHT22;18974;50.838;4.636;2023-07-29T02:25:13;19.00;99.90
32536;DHT22;18974;50.838;4.636;2023-07-29T02:27:39;18.90;99.90
32536;DHT22;18974;50.838;4.636;2023-07-29T02:30:05;18.80;99.90
32536;DHT22;18974;50.838;4.636;2023-07-29T02:32:31;18.80;99.90
32536;DHT22;18974;50.838;4.636;2023-07-29T02:34:57;18.80;99.90
32536;DHT22;18974;50.838;4.636;2023-07-29T02:37:23;18.90;99.90
32536;DHT22;18974;50.838;4.636;2023-07-29T02:39:48;18.80;99.90
32536;DHT22;18974;50.838;4.636;2023-07-29T02:42:14;18.80;99.90
32536;DHT22;18974;50.838;4.636;2023-07-29T02:44:40;18.70;99.90
32536;DHT22;18974;50.838;4.636;2023-07-29T02:47:06;18.70;99.90
32536;DHT22;18974;50.838;4.636;2023-07-29T02:49:31;18.70;99.90
32536;DHT22;18974;50.838;4.636;2023-07-29T02:51:57;18.70;99.90
32536;DHT22;18974;50.838;4.636;2023-07-29T02:54:23;18.70;99.90
32536;DHT22;18974;50.838;4.636;2023-07-29T02:56:50;18.60;99.90
32536;DHT22;18974;50.838;4.636;2023-07-29T02:59:16;18.60;99.90
32536;DHT22;18974;50.838;4.636;2023-07-29T03:01:42;18.50;99.90
32536;DHT22;18974;50.838;4.636;2023-07-29T03:04:08;18.60;99.90
32536;DHT22;18974;50.838;4.636;2023-07-29T03:06:33;18.60;99.90
32536;DHT22;18974;50.838;4.636;2023-07-29T03:08:59;18.60;99.90
32536;DHT22;18974;50.838;4.636;2023-07-29T03:11:24;18.60;99.90
32536;DHT22;18974;50.838;4.636;2023-07-29T03:13:50;18.60;99.90
32536;DHT22;18974;50.838;4.636;2023-07-29T03:16:17;18.70;99.90
32536;DHT22;18974;50.838;4.636;2023-07-29T03:18:44;18.70;99.90
32536;DHT22;18974;50.838;4.636;2023-07-29T03:21:10;18.60;99.90
32536;DHT22;18974;50.838;4.636;2023-07-29T03:23:37;18.50;99.90
32536;DHT22;18974;50.838;4.636;2023-07-29T03:26:03;18.50;99.90
32536;DHT22;18974;50.838;4.636;2023-07-29T03:28:43;18.50;99.90
32536;DHT22;18974;50.838;4.636;2023-07-29T03:31:09;18.50;99.90
32536;DHT22;18974;50.838;4.636;2023-07-29T03:33:35;18.60;99.90
32536;DHT22;18974;50.838;4.636;2023-07-29T03:36:01;18.50;99.90
32536;DHT22;18974;50.838;4.636;2023-07-29T03:38:26;18.50;99.90
32536;DHT22;18974;50.838;4.636;2023-07-29T03:40:53;18.50;99.90
32536;DHT22;18974;50.838;4.636;2023-07-29T03:43:19;18.50;99.90
32536;DHT22;18974;50.838;4.636;2023-07-29T03:45:44;18.40;99.90
32536;DHT22;18974;50.838;4.636;2023-07-29T03:48:10;18.40;99.90
32536;DHT22;18974;50.838;4.636;2023-07-29T03:50:36;18.30;99.90
32536;DHT22;18974;50.838;4.636;2023-07-29T03:53:03;18.30;99.90
32536;DHT22;18974;50.838;4.636;2023-07-29T03:55:29;18.30;99.90
32536;DHT22;18974;50.838;4.636;2023-07-29T03:57:59;18.30;99.90
32536;DHT22;18974;50.838;4.636;2023-07-29T04:00:25;18.30;99.90
32536;DHT22;18974;50.838;4.636;2023-07-29T04:02:51;18.30;99.90
32536;DHT22;18974;50.838;4.636;2023-07-29T04:05:17;18.20;99.90
32536;DHT22;18974;50.838;4.636;2023-07-29T04:07:43;18.30;99.90
32536;DHT22;18974;50.838;4.636;2023-07-29T04:10:09;18.40;99.90
32536;DHT22;18974;50.838;4.636;2023-07-29T04:12:34;18.40;99.90
32536;DHT22;18974;50.838;4.636;2023-07-29T04:15:00;18.30;99.90
32536;DHT22;18974;50.838;4.636;2023-07-29T04:17:26;18.30;99.90
32536;DHT22;18974;50.838;4.636;2023-07-29T04:19:51;18.30;99.90
32536;DHT22;18974;50.838;4.636;2023-07-29T04:22:17;18.30;99.90
32536;DHT22;18974;50.838;4.636;2023-07-29T04:24:43;18.40;99.90
32536;DHT22;18974;50.838;4.636;2023-07-29T04:27:08;18.30;99.90
32536;DHT22;18974;50.838;4.636;2023-07-29T04:29:35;18.20;99.90
32536;DHT22;18974;50.838;4.636;2023-07-29T04:32:02;18.30;99.90
32536;DHT22;18974;50.838;4.636;2023-07-29T04:34:28;18.30;99.90
32536;DHT22;18974;50.838;4.636;2023-07-29T04:36:54;18.30;99.90
32536;DHT22;18974;50.838;4.636;2023-07-29T04:39:19;18.40;99.90
32536;DHT22;18974;50.838;4.636;2023-07-29T04:41:45;18.30;99.90
32536;DHT22;18974;50.838;4.636;2023-07-29T04:44:11;18.40;99.90
32536;DHT22;18974;50.838;4.636;2023-07-29T04:46:37;18.40;99.90
32536;DHT22;18974;50.838;4.636;2023-07-29T04:49:04;18.50;99.90
32536;DHT22;18974;50.838;4.636;2023-07-29T04:51:29;18.50;99.90
32536;DHT22;18974;50.838;4.636;2023-07-29T04:53:57;18.50;99.90
32536;DHT22;18974;50.838;4.636;2023-07-29T04:56:23;18.60;99.90
32536;DHT22;18974;50.838;4.636;2023-07-29T04:58:49;18.60;99.90
32536;DHT22;18974;50.838;4.636;2023-07-29T05:01:14;18.60;99.90
32536;DHT22;18974;50.838;4.636;2023-07-29T05:03:40;18.60;99.90
32536;DHT22;18974;50.838;4.636;2023-07-29T05:06:06;18.60;99.90
32536;DHT22;18974;50.838;4.636;2023-07-29T05:08:31;18.60;99.90
32536;DHT22;18974;50.838;4.636;2023-07-29T05:10:57;18.60;99.90
32536;DHT22;18974;50.838;4.636;2023-07-29T05:13:23;18.60;99.90
32536;DHT22;18974;50.838;4.636;2023-07-29T05:15:49;18.60;99.90
32536;DHT22;18974;50.838;4.636;2023-07-29T05:18:16;18.60;99.90
32536;DHT22;18974;50.838;4.636;2023-07-29T05:20:42;18.70;99.90
32536;DHT22;18974;50.838;4.636;2023-07-29T05:23:08;18.60;99.90
32536;DHT22;18974;50.838;4.636;2023-07-29T05:25:33;18.60;99.90
32536;DHT22;18974;50.838;4.636;2023-07-29T05:28:02;18.70;99.90
32536;DHT22;18974;50.838;4.636;2023-07-29T05:30:29;18.70;99.90
32536;DHT22;18974;50.838;4.636;2023-07-29T05:33:03;18.70;99.90
32536;DHT22;18974;50.838;4.636;2023-07-29T05:35:29;18.80;99.90
32536;DHT22;18974;50.838;4.636;2023-07-29T05:37:54;18.80;99.90
32536;DHT22;18974;50.838;4.636;2023-07-29T05:40:20;18.80;99.90
32536;DHT22;18974;50.838;4.636;2023-07-29T05:42:46;18.70;99.90
32536;DHT22;18974;50.838;4.636;2023-07-29T05:45:11;18.70;99.90
32536;DHT22;18974;50.838;4.636;2023-07-29T05:47:37;18.70;99.90
32536;DHT22;18974;50.838;4.636;2023-07-29T05:50:04;18.70;99.90
32536;DHT22;18974;50.838;4.636;2023-07-29T05:52:32;18.90;99.90
32536;DHT22;18974;50.838;4.636;2023-07-29T05:54:58;19.00;99.90
32536;DHT22;18974;50.838;4.636;2023-07-29T05:57:24;19.00;99.90
32536;DHT22;18974;50.838;4.636;2023-07-29T05:59:50;19.20;99.90
32536;DHT22;18974;50.838;4.636;2023-07-29T06:02:15;19.30;99.90
32536;DHT22;18974;50.838;4.636;2023-07-29T06:04:41;19.40;99.90
32536;DHT22;18974;50.838;4.636;2023-07-29T06:07:07;19.50;99.90
32536;DHT22;18974;50.838;4.636;2023-07-29T06:09:32;19.60;99.90
32536;DHT22;18974;50.838;4.636;2023-07-29T06:11:58;19.50;99.90
32536;DHT22;18974;50.838;4.636;2023-07-29T06:14:24;19.50;99.90
32536;DHT22;18974;50.838;4.636;2023-07-29T06:16:49;19.40;99.90
32536;DHT22;18974;50.838;4.636;2023-07-29T06:19:15;19.40;99.90
32536;DHT22;18974;50.838;4.636;2023-07-29T06:21:41;19.40;99.90
32536;DHT22;18974;50.838;4.636;2023-07-29T06:24:07;19.50;99.90
32536;DHT22;18974;50.838;4.636;2023-07-29T06:26:32;19.70;99.90
32536;DHT22;18974;50.838;4.636;2023-07-29T06:28:58;19.80;99.90
32536;DHT22;18974;50.838;4.636;2023-07-29T06:31:24;19.90;99.90
32536;DHT22;18974;50.838;4.636;2023-07-29T06:33:49;20.00;99.90
32536;DHT22;18974;50.838;4.636;2023-07-29T06:36:15;20.10;99.90
32536;DHT22;18974;50.838;4.636;2023-07-29T06:38:41;20.20;99.90
32536;DHT22;18974;50.838;4.636;2023-07-29T06:41:07;20.30;99.90
32536;DHT22;18974;50.838;4.636;2023-07-29T06:43:33;20.40;99.90
32536;DHT22;18974;50.838;4.636;2023-07-29T06:45:58;20.60;99.90
32536;DHT22;18974;50.838;4.636;2023-07-29T06:48:24;20.80;99.90
32536;DHT22;18974;50.838;4.636;2023-07-29T06:50:50;20.90;99.90
32536;DHT22;18974;50.838;4.636;2023-07-29T06:53:20;21.00;99.90
32536;DHT22;18974;50.838;4.636;2023-07-29T06:55:46;21.20;99.90
32536;DHT22;18974;50.838;4.636;2023-07-29T06:58:12;21.40;99.90
32536;DHT22;18974;50.838;4.636;2023-07-29T07:00:38;21.50;99.90
32536;DHT22;18974;50.838;4.636;2023-07-29T07:03:03;21.40;99.90
32536;DHT22;18974;50.838;4.636;2023-07-29T07:05:29;21.50;99.90
32536;DHT22;18974;50.838;4.636;2023-07-29T07:07:55;21.40;99.90
32536;DHT22;18974;50.838;4.636;2023-07-29T07:10:20;21.50;99.90
32536;DHT22;18974;50.838;4.636;2023-07-29T07:12:46;21.50;99.90
32536;DHT22;18974;50.838;4.636;2023-07-29T07:15:11;21.60;99.90
32536;DHT22;18974;50.838;4.636;2023-07-29T07:17:37;21.60;99.90
32536;DHT22;18974;50.838;4.636;2023-07-29T07:20:03;21.70;99.90
32536;DHT22;18974;50.838;4.636;2023-07-29T07:22:29;21.70;99.90
32536;DHT22;18974;50.838;4.636;2023-07-29T07:24:54;21.70;99.90
32536;DHT22;18974;50.838;4.636;2023-07-29T07:27:20;21.40;99.90
32536;DHT22;18974;50.838;4.636;2023-07-29T07:29:46;21.40;99.90
32536;DHT22;18974;50.838;4.636;2023-07-29T07:32:11;21.40;99.90
32536;DHT22;18974;50.838;4.636;2023-07-29T07:34:37;21.50;99.90
32536;DHT22;18974;50.838;4.636;2023-07-29T07:37:03;21.50;99.90
32536;DHT22;18974;50.838;4.636;2023-07-29T07:39:30;21.60;99.90
32536;DHT22;18974;50.838;4.636;2023-07-29T07:41:56;21.70;99.90
32536;DHT22;18974;50.838;4.636;2023-07-29T07:44:22;21.70;99.90
32536;DHT22;18974;50.838;4.636;2023-07-29T07:46:48;21.80;99.90
32536;DHT22;18974;50.838;4.636;2023-07-29T07:49:14;21.80;99.90
32536;DHT22;18974;50.838;4.636;2023-07-29T07:51:39;21.90;99.90
32536;DHT22;18974;50.838;4.636;2023-07-29T07:54:05;21.90;99.90
32536;DHT22;18974;50.838;4.636;2023-07-29T07:56:30;21.80;99.90
32536;DHT22;18974;50.838;4.636;2023-07-29T07:58:56;21.70;99.90
32536;DHT22;18974;50.838;4.636;2023-07-29T08:01:22;21.70;99.90
32536;DHT22;18974;50.838;4.636;2023-07-29T08:03:47;21.80;99.90
32536;DHT22;18974;50.838;4.636;2023-07-29T08:06:13;22.00;99.90
32536;DHT22;18974;50.838;4.636;2023-07-29T08:08:39;22.10;99.90
32536;DHT22;18974;50.838;4.636;2023-07-29T08:11:05;22.10;99.90
32536;DHT22;18974;50.838;4.636;2023-07-29T08:13:30;22.10;99.90
32536;DHT22;18974;50.838;4.636;2023-07-29T08:15:56;22.30;99.90
32536;DHT22;18974;50.838;4.636;2023-07-29T08:18:22;22.40;99.90
32536;DHT22;18974;50.838;4.636;2023-07-29T08:20:55;22.40;99.90
32536;DHT22;18974;50.838;4.636;2023-07-29T08:23:21;22.50;99.90
32536;DHT22;18974;50.838;4.636;2023-07-29T08:25:54;22.50;99.90
32536;DHT22;18974;50.838;4.636;2023-07-29T08:28:22;22.40;99.90
32536;DHT22;18974;50.838;4.636;2023-07-29T08:30:48;22.40;99.90
32536;DHT22;18974;50.838;4.636;2023-07-29T08:33:14;22.70;99.90
32536;DHT22;18974;50.838;4.636;2023-07-29T08:35:39;22.70;99.90
32536;DHT22;18974;50.838;4.636;2023-07-29T08:38:05;22.80;99.90
32536;DHT22;18974;50.838;4.636;2023-07-29T08:40:31;22.90;99.90
32536;DHT22;18974;50.838;4.636;2023-07-29T08:43:04;22.90;99.90
32536;DHT22;18974;50.838;4.636;2023-07-29T08:45:34;23.00;99.90
32536;DHT22;18974;50.838;4.636;2023-07-29T08:48:02;23.10;99.90
32536;DHT22;18974;50.838;4.636;2023-07-29T08:50:32;23.10;99.90
32536;DHT22;18974;50.838;4.636;2023-07-29T08:52:59;23.10;99.90
32536;DHT22;18974;50.838;4.636;2023-07-29T08:55:26;23.20;99.90
32536;DHT22;18974;50.838;4.636;2023-07-29T08:57:52;23.20;99.90
32536;DHT22;18974;50.838;4.636;2023-07-29T09:00:19;23.30;99.90
32536;DHT22;18974;50.838;4.636;2023-07-29T09:02:45;23.30;99.90
32536;DHT22;18974;50.838;4.636;2023-07-29T09:05:11;23.40;99.90
32536;DHT22;18974;50.838;4.636;2023-07-29T09:07:37;23.30;99.90
32536;DHT22;18974;50.838;4.636;2023-07-29T09:10:04;23.30;99.90
32536;DHT22;18974;50.838;4.636;2023-07-29T09:12:29;23.30;99.90
32536;DHT22;18974;50.838;4.636;2023-07-29T09:14:55;23.30;99.90
32536;DHT22;18974;50.838;4.636;2023-07-29T09:17:21;23.40;99.90
32536;DHT22;18974;50.838;4.636;2023-07-29T09:19:48;23.50;99.90
32536;DHT22;18974;50.838;4.636;2023-07-29T09:22:21;23.80;99.90
32536;DHT22;18974;50.838;4.636;2023-07-29T09:24:47;23.90;99.90
32536;DHT22;18974;50.838;4.636;2023-07-29T09:27:26;24.00;99.90
32536;DHT22;18974;50.838;4.636;2023-07-29T09:29:53;24.10;99.90
32536;DHT22;18974;50.838;4.636;2023-07-29T09:32:20;23.90;99.90
32536;DHT22;18974;50.838;4.636;2023-07-29T09:34:46;24.10;99.90
32536;DHT22;18974;50.838;4.636;2023-07-29T09:37:17;24.30;99.90
32536;DHT22;18974;50.838;4.636;2023-07-29T09:39:47;24.40;99.90
32536;DHT22;18974;50.838;4.636;2023-07-29T09:42:22;24.40;99.90
32536;DHT22;18974;50.838;4.636;2023-07-29T09:44:49;24.50;99.90
32536;DHT22;18974;50.838;4.636;2023-07-29T09:47:20;24.40;99.90
32536;DHT22;18974;50.838;4.636;2023-07-29T09:49:46;24.50;99.90
32536;DHT22;18974;50.838;4.636;2023-07-29T09:52:13;24.60;99.90
32536;DHT22;18974;50.838;4.636;2023-07-29T09:54:39;24.60;99.90
32536;DHT22;18974;50.838;4.636;2023-07-29T09:57:06;24.60;99.90
32536;DHT22;18974;50.838;4.636;2023-07-29T09:59:36;24.70;99.90
32536;DHT22;18974;50.838;4.636;2023-07-29T10:02:01;25.00;99.90
32536;DHT22;18974;50.838;4.636;2023-07-29T10:04:28;25.40;99.90
32536;DHT22;18974;50.838;4.636;2023-07-29T10:06:54;25.80;99.90
32536;DHT22;18974;50.838;4.636;2023-07-29T10:09:20;26.00;99.90
32536;DHT22;18974;50.838;4.636;2023-07-29T10:11:47;26.30;99.90
32536;DHT22;18974;50.838;4.636;2023-07-29T10:14:15;26.20;99.90
32536;DHT22;18974;50.838;4.636;2023-07-29T10:16:41;26.00;99.90
32536;DHT22;18974;50.838;4.636;2023-07-29T10:19:07;25.60;99.90
32536;DHT22;18974;50.838;4.636;2023-07-29T10:21:38;25.20;99.90
32536;DHT22;18974;50.838;4.636;2023-07-29T10:24:07;24.60;99.90
32536;DHT22;18974;50.838;4.636;2023-07-29T10:26:35;24.40;99.90
32536;DHT22;18974;50.838;4.636;2023-07-29T10:29:04;24.10;99.90
32536;DHT22;18974;50.838;4.636;2023-07-29T10:31:34;24.00;99.90
32536;DHT22;18974;50.838;4.636;2023-07-29T10:34:01;23.90;99.90
32536;DHT22;18974;50.838;4.636;2023-07-29T10:36:28;23.70;99.90
32536;DHT22;18974;50.838;4.636;2023-07-29T10:38:54;23.20;99.90
32536;DHT22;18974;50.838;4.636;2023-07-29T10:41:19;22.40;99.90
32536;DHT22;18974;50.838;4.636;2023-07-29T10:43:45;21.80;99.90
32536;DHT22;18974;50.838;4.636;2023-07-29T10:46:23;21.50;99.90
32536;DHT22;18974;50.838;4.636;2023-07-29T10:48:54;21.50;99.90
32536;DHT22;18974;50.838;4.636;2023-07-29T10:51:36;21.50;99.90
32536;DHT22;18974;50.838;4.636;2023-07-29T10:54:10;21.60;99.90
32536;DHT22;18974;50.838;4.636;2023-07-29T10:56:37;21.90;99.90
32536;DHT22;18974;50.838;4.636;2023-07-29T11:01:39;22.50;99.90
32536;DHT22;18974;50.838;4.636;2023-07-29T11:15:12;23.00;99.90
32536;DHT22;18974;50.838;4.636;2023-07-29T11:20:11;23.00;99.90
32536;DHT22;18974;50.838;4.636;2023-07-29T11:22:38;22.80;99.90
32536;DHT22;18974;50.838;4.636;2023-07-29T11:25:07;22.90;99.90
32536;DHT22;18974;50.838;4.636;2023-07-29T11:27:33;23.10;99.90
32536;DHT22;18974;50.838;4.636;2023-07-29T11:30:00;23.40;99.90
32536;DHT22;18974;50.838;4.636;2023-07-29T11:32:25;23.50;99.90
32536;DHT22;18974;50.838;4.636;2023-07-29T11:34:51;23.70;99.90
32536;DHT22;18974;50.838;4.636;2023-07-29T11:37:17;23.60;99.90
32536;DHT22;18974;50.838;4.636;2023-07-29T11:39:44;23.60;99.90
32536;DHT22;18974;50.838;4.636;2023-07-29T11:42:14;23.60;99.90
32536;DHT22;18974;50.838;4.636;2023-07-29T11:44:40;23.80;99.90
32536;DHT22;18974;50.838;4.636;2023-07-29T11:47:09;23.80;99.90
32536;DHT22;18974;50.838;4.636;2023-07-29T11:49:37;24.00;99.90
32536;DHT22;18974;50.838;4.636;2023-07-29T11:52:05;24.30;99.90
32536;DHT22;18974;50.838;4.636;2023-07-29T11:54:31;24.60;99.90
32536;DHT22;18974;50.838;4.636;2023-07-29T11:56:57;24.70;99.90
32536;DHT22;18974;50.838;4.636;2023-07-29T11:59:23;24.90;99.90
32536;DHT22;18974;50.838;4.636;2023-07-29T12:01:49;24.90;99.90
32536;DHT22;18974;50.838;4.636;2023-07-29T12:04:15;25.10;99.90
32536;DHT22;18974;50.838;4.636;2023-07-29T12:06:41;25.20;99.90
32536;DHT22;18974;50.838;4.636;2023-07-29T12:09:07;25.10;99.90
32536;DHT22;18974;50.838;4.636;2023-07-29T12:11:34;25.30;99.90
32536;DHT22;18974;50.838;4.636;2023-07-29T12:14:00;25.50;99.90
32536;DHT22;18974;50.838;4.636;2023-07-29T12:16:26;25.30;99.90
32536;DHT22;18974;50.838;4.636;2023-07-29T12:18:52;25.20;99.90
32536;DHT22;18974;50.838;4.636;2023-07-29T12:21:20;25.20;99.90
32536;DHT22;18974;50.838;4.636;2023-07-29T12:23:46;25.20;99.90
32536;DHT22;18974;50.838;4.636;2023-07-29T12:26:12;25.10;99.90
32536;DHT22;18974;50.838;4.636;2023-07-29T12:28:38;25.10;99.90
32536;DHT22;18974;50.838;4.636;2023-07-29T12:31:07;25.20;99.90
32536;DHT22;18974;50.838;4.636;2023-07-29T12:33:35;25.30;99.90
32536;DHT22;18974;50.838;4.636;2023-07-29T12:36:02;25.40;99.90
32536;DHT22;18974;50.838;4.636;2023-07-29T12:38:28;25.40;99.90
32536;DHT22;18974;50.838;4.636;2023-07-29T12:40:55;25.30;99.90
32536;DHT22;18974;50.838;4.636;2023-07-29T12:43:21;25.10;99.90
32536;DHT22;18974;50.838;4.636;2023-07-29T12:45:49;24.80;99.90
32536;DHT22;18974;50.838;4.636;2023-07-29T12:48:15;24.60;99.90
32536;DHT22;18974;50.838;4.636;2023-07-29T12:50:40;24.20;99.90
32536;DHT22;18974;50.838;4.636;2023-07-29T12:53:07;23.70;99.90
32536;DHT22;18974;50.838;4.636;2023-07-29T12:55:34;23.30;99.90
32536;DHT22;18974;50.838;4.636;2023-07-29T12:57:59;23.20;99.90
32536;DHT22;18974;50.838;4.636;2023-07-29T13:00:26;23.20;99.90
32536;DHT22;18974;50.838;4.636;2023-07-29T13:02:52;23.10;99.90
32536;DHT22;18974;50.838;4.636;2023-07-29T13:05:17;23.30;99.90
32536;DHT22;18974;50.838;4.636;2023-07-29T13:07:43;23.30;99.90
32536;DHT22;18974;50.838;4.636;2023-07-29T13:10:12;23.40;99.90
32536;DHT22;18974;50.838;4.636;2023-07-29T13:12:38;23.40;99.90
32536;DHT22;18974;50.838;4.636;2023-07-29T13:15:04;23.50;99.90
32536;DHT22;18974;50.838;4.636;2023-07-29T13:17:31;23.70;99.90
32536;DHT22;18974;50.838;4.636;2023-07-29T13:19:56;23.90;99.90
32536;DHT22;18974;50.838;4.636;2023-07-29T13:22:22;24.20;99.90
32536;DHT22;18974;50.838;4.636;2023-07-29T13:24:47;24.40;99.90
32536;DHT22;18974;50.838;4.636;2023-07-29T13:27:13;24.40;99.90
32536;DHT22;18974;50.838;4.636;2023-07-29T13:29:39;24.30;99.90
32536;DHT22;18974;50.838;4.636;2023-07-29T13:32:06;24.30;99.90
32536;DHT22;18974;50.838;4.636;2023-07-29T13:34:32;24.10;99.90
32536;DHT22;18974;50.838;4.636;2023-07-29T13:36:59;24.20;99.90
32536;DHT22;18974;50.838;4.636;2023-07-29T13:39:25;24.20;99.90
32536;DHT22;18974;50.838;4.636;2023-07-29T13:41:50;24.20;99.90
32536;DHT22;18974;50.838;4.636;2023-07-29T13:44:16;24.30;99.90
32536;DHT22;18974;50.838;4.636;2023-07-29T13:46:41;24.60;99.90
32536;DHT22;18974;50.838;4.636;2023-07-29T13:49:07;25.00;99.90
32536;DHT22;18974;50.838;4.636;2023-07-29T13:51:33;25.30;99.90
32536;DHT22;18974;50.838;4.636;2023-07-29T13:53:58;25.30;99.90
32536;DHT22;18974;50.838;4.636;2023-07-29T13:56:24;25.60;99.90
32536;DHT22;18974;50.838;4.636;2023-07-29T13:58:50;25.70;99.90
32536;DHT22;18974;50.838;4.636;2023-07-29T14:01:15;25.70;99.90
32536;DHT22;18974;50.838;4.636;2023-07-29T14:03:41;25.60;99.90
32536;DHT22;18974;50.838;4.636;2023-07-29T14:06:07;25.40;99.90
32536;DHT22;18974;50.838;4.636;2023-07-29T14:08:32;25.20;99.90
32536;DHT22;18974;50.838;4.636;2023-07-29T14:10:58;25.20;99.90
32536;DHT22;18974;50.838;4.636;2023-07-29T14:13:24;25.40;99.90
32536;DHT22;18974;50.838;4.636;2023-07-29T14:15:49;25.50;99.90
32536;DHT22;18974;50.838;4.636;2023-07-29T14:18:15;25.50;99.90
32536;DHT22;18974;50.838;4.636;2023-07-29T14:20:41;25.40;99.90
32536;DHT22;18974;50.838;4.636;2023-07-29T14:23:06;25.50;99.90
32536;DHT22;18974;50.838;4.636;2023-07-29T14:25:32;25.50;99.90
32536;DHT22;18974;50.838;4.636;2023-07-29T14:27:57;25.60;99.90
32536;DHT22;18974;50.838;4.636;2023-07-29T14:30:23;25.60;99.90
32536;DHT22;18974;50.838;4.636;2023-07-29T14:32:49;25.40;99.90
32536;DHT22;18974;50.838;4.636;2023-07-29T14:35:15;25.30;99.90
32536;DHT22;18974;50.838;4.636;2023-07-29T14:37:40;25.20;99.90
32536;DHT22;18974;50.838;4.636;2023-07-29T14:40:06;25.30;99.90
32536;DHT22;18974;50.838;4.636;2023-07-29T14:42:32;25.40;99.90
32536;DHT22;18974;50.838;4.636;2023-07-29T14:44:58;25.40;99.90
32536;DHT22;18974;50.838;4.636;2023-07-29T14:47:24;25.40;99.90
32536;DHT22;18974;50.838;4.636;2023-07-29T14:49:49;25.30;99.90
32536;DHT22;18974;50.838;4.636;2023-07-29T14:52:15;25.30;99.90
32536;DHT22;18974;50.838;4.636;2023-07-29T14:54:40;25.30;99.90
32536;DHT22;18974;50.838;4.636;2023-07-29T14:57:07;25.20;99.90
32536;DHT22;18974;50.838;4.636;2023-07-29T14:59:33;25.20;99.90
32536;DHT22;18974;50.838;4.636;2023-07-29T15:01:58;25.20;99.90
32536;DHT22;18974;50.838;4.636;2023-07-29T15:04:24;25.20;99.90
32536;DHT22;18974;50.838;4.636;2023-07-29T15:06:50;25.20;99.90
32536;DHT22;18974;50.838;4.636;2023-07-29T15:09:16;25.30;99.90
32536;DHT22;18974;50.838;4.636;2023-07-29T15:11:42;25.30;99.90
32536;DHT22;18974;50.838;4.636;2023-07-29T15:14:07;25.40;99.90
32536;DHT22;18974;50.838;4.636;2023-07-29T15:16:33;25.60;99.90
32536;DHT22;18974;50.838;4.636;2023-07-29T15:19:03;25.60;99.90
32536;DHT22;18974;50.838;4.636;2023-07-29T15:21:29;25.60;99.90
32536;DHT22;18974;50.838;4.636;2023-07-29T15:23:55;25.40;99.90
32536;DHT22;18974;50.838;4.636;2023-07-29T15:26:21;25.40;99.90
32536;DHT22;18974;50.838;4.636;2023-07-29T15:28:47;25.50;99.90
32536;DHT22;18974;50.838;4.636;2023-07-29T15:31:13;25.60;99.90
32536;DHT22;18974;50.838;4.636;2023-07-29T15:33:38;25.50;99.90
32536;DHT22;18974;50.838;4.636;2023-07-29T15:36:04;25.20;99.90
32536;DHT22;18974;50.838;4.636;2023-07-29T15:38:30;25.20;99.90
32536;DHT22;18974;50.838;4.636;2023-07-29T15:40:56;25.20;99.90
32536;DHT22;18974;50.838;4.636;2023-07-29T15:43:22;25.20;99.90
32536;DHT22;18974;50.838;4.636;2023-07-29T15:45:48;25.10;99.90
32536;DHT22;18974;50.838;4.636;2023-07-29T15:48:14;25.10;99.90